Ufo 3 — IUNV — position and weather

sailwx.info

Track history (hours):
 
Tides and Currents Weather Stations Pressure Air Temp Water Temp Dewpoint Dewpoint Depression Visibility Wind Speed Wind Dir Waves Ship Positions

Ufo 3

Last reported at 2016-Apr-29 13:33 UTC. Time now 2016-Apr-29 13:59 UTC.
Position N 44°03' E 009°50'.

Length 28 m.

Type: Passenger vessel. MMSI: 247031600.

Date/timePositionNaut miles runAvg speedWind from/ knotsBaromVisibWave heightAir tempDewpointWater temp
2016-Apr-29 13:33N 44°03' E 009°50'0 0.0
2016-Apr-29 12:33N 44°03' E 009°50'1 1.0
2016-Apr-29 11:33N 44°03' E 009°49'4 1.7
2016-Apr-29 09:04N 44°06' E 009°44'510.5
2016-Apr-29 08:34N 44°03' E 009°50'3 2.8
2016-Apr-29 07:33N 44°06' E 009°50'3 0.2
2016-Apr-28 15:05N 44°03' E 009°50'0 0.0
2016-Apr-28 14:33N 44°03' E 009°50'0 0.4
2016-Apr-28 13:33N 44°03' E 009°50'  
2016-Apr-25 16:25N 44°03' E 009°51'0 0.5
2016-Apr-25 15:33N 44°03' E 009°50'0 0.0
2016-Apr-25 14:33N 44°03' E 009°50'3 3.4
2016-Apr-25 13:33N 44°04' E 009°55'2 1.6
2016-Apr-25 12:34N 44°04' E 009°52'2 1.6
2016-Apr-25 11:33N 44°04' E 009°55'3 3.4
2016-Apr-25 10:33N 44°03' E 009°50'0 0.0
2016-Apr-24 15:33N 44°03' E 009°51'10 6.8
2016-Apr-24 14:08N 44°08' E 009°40'0 0.1
2016-Apr-24 12:15N 44°09' E 009°39'10 2.0
2016-Apr-24 07:23N 44°03' E 009°51'0 0.0
2016-Apr-24 06:33N 44°03' E 009°51'0 0.0
2016-Apr-23 08:16N 44°03' E 009°51'0 0.6
2016-Apr-23 07:33N 44°03' E 009°50'0 0.0
2016-Apr-23 06:34N 44°03' E 009°50'0 0.0
2016-Apr-23 05:33N 44°03' E 009°50'0 0.0
2016-Apr-22 17:33N 44°03' E 009°50'1110.7
2016-Apr-22 16:32N 44°09' E 009°37'6 5.7
2016-Apr-22 15:31N 44°06' E 009°44'5 5.4
2016-Apr-22 14:34N 44°03' E 009°50'4 3.6
2016-Apr-22 13:33N 44°05' E 009°46'6 2.5
2016-Apr-22 11:14N 44°09' E 009°40'4 5.6
2016-Apr-22 10:29N 44°06' E 009°44'8 8.3
2016-Apr-22 09:34N 44°04' E 009°54'3 0.2
2016-Apr-21 15:15N 44°03' E 009°51'10 8.5
2016-Apr-21 14:06N 44°08' E 009°40'0 0.4
2016-Apr-21 13:19N 44°09' E 009°39'0 0.0
2016-Apr-21 11:17N 44°09' E 009°39'0 0.1
2016-Apr-21 10:30N 44°09' E 009°39'4 3.3
2016-Apr-21 09:24N 44°06' E 009°43'1 1.1
2016-Apr-21 08:34N 44°05' E 009°44'4 4.2
2016-Apr-21 07:33N 44°06' E 009°50'  
Track history (hours):
 
Tides and Currents Weather Stations Pressure Air Temp Water Temp Dewpoint Dewpoint Depression Visibility Wind Speed Wind Dir Waves Ship Positions

Ufo 3

Last reported at 2016-Apr-29 13:33 UTC. Time now 2016-Apr-29 13:59 UTC.
Position N 44°03' E 009°50'.

Length 28 m.

Type: Passenger vessel. MMSI: 247031600.

Date/timePositionNaut miles runAvg speedWind from/ knotsBaromVisibWave heightAir tempDewpointWater temp
2016-Apr-29 13:33N 44°03' E 009°50'0 0.0
2016-Apr-29 12:33N 44°03' E 009°50'1 1.0
2016-Apr-29 11:33N 44°03' E 009°49'4 1.7
2016-Apr-29 09:04N 44°06' E 009°44'510.5
2016-Apr-29 08:34N 44°03' E 009°50'3 2.8
2016-Apr-29 07:33N 44°06' E 009°50'3 0.2
2016-Apr-28 15:05N 44°03' E 009°50'0 0.0
2016-Apr-28 14:33N 44°03' E 009°50'0 0.4
2016-Apr-28 13:33N 44°03' E 009°50'  
2016-Apr-25 16:25N 44°03' E 009°51'0 0.5
2016-Apr-25 15:33N 44°03' E 009°50'0 0.0
2016-Apr-25 14:33N 44°03' E 009°50'3 3.4
2016-Apr-25 13:33N 44°04' E 009°55'2 1.6
2016-Apr-25 12:34N 44°04' E 009°52'2 1.6
2016-Apr-25 11:33N 44°04' E 009°55'3 3.4
2016-Apr-25 10:33N 44°03' E 009°50'0 0.0
2016-Apr-24 15:33N 44°03' E 009°51'10 6.8
2016-Apr-24 14:08N 44°08' E 009°40'0 0.1
2016-Apr-24 12:15N 44°09' E 009°39'10 2.0
2016-Apr-24 07:23N 44°03' E 009°51'0 0.0
2016-Apr-24 06:33N 44°03' E 009°51'0 0.0
2016-Apr-23 08:16N 44°03' E 009°51'0 0.6
2016-Apr-23 07:33N 44°03' E 009°50'0 0.0
2016-Apr-23 06:34N 44°03' E 009°50'0 0.0
2016-Apr-23 05:33N 44°03' E 009°50'0 0.0
2016-Apr-22 17:33N 44°03' E 009°50'1110.7
2016-Apr-22 16:32N 44°09' E 009°37'6 5.7
2016-Apr-22 15:31N 44°06' E 009°44'5 5.4
2016-Apr-22 14:34N 44°03' E 009°50'4 3.6
2016-Apr-22 13:33N 44°05' E 009°46'6 2.5
2016-Apr-22 11:14N 44°09' E 009°40'4 5.6
2016-Apr-22 10:29N 44°06' E 009°44'8 8.3
2016-Apr-22 09:34N 44°04' E 009°54'3 0.2
2016-Apr-21 15:15N 44°03' E 009°51'10 8.5
2016-Apr-21 14:06N 44°08' E 009°40'0 0.4
2016-Apr-21 13:19N 44°09' E 009°39'0 0.0
2016-Apr-21 11:17N 44°09' E 009°39'0 0.1
2016-Apr-21 10:30N 44°09' E 009°39'4 3.3
2016-Apr-21 09:24N 44°06' E 009°43'1 1.1
2016-Apr-21 08:34N 44°05' E 009°44'4 4.2
2016-Apr-21 07:33N 44°06' E 009°50'  

Dump ship's entire track history